Time;durP1;ratioP1;P1;durP2;ratioP2;P2;SDS_P1;SDS_P2;PMS_P1;PMS_P2;Temp;Humidity;BMP_temperature;BMP_pressure;BME280_temperature;BME280_humidity;BME280_pressure;Samples;Min_cycle;Max_cycle;Signal;HPM_P1;HPM_P2
2021/09/15 00:01:04;;;;;;;14.27;8.23;;;;;;;21.08;77.76;100096.38;4998365;28;20412;-81
2021/09/15 00:03:30;;;;;;;12.65;8.88;;;;;;;21.07;77.79;100098.34;4995209;28;20402;-81
2021/09/15 00:05:55;;;;;;;11.67;8.17;;;;;;;21.06;77.96;100093.94;5001936;28;20409;-81
2021/09/15 00:08:20;;;;;;;11.77;8.57;;;;;;;21.05;78.21;100095.06;5001127;28;20482;-81
2021/09/15 00:10:46;;;;;;;11.20;8.98;;;;;;;21.06;78.11;100090.38;4995592;28;20412;-81
2021/09/15 00:13:11;;;;;;;10.73;9.43;;;;;;;21.07;77.94;100097.53;5003217;28;20405;-81
2021/09/15 00:15:37;;;;;;;13.38;9.38;;;;;;;21.07;77.90;100081.81;4992795;28;20402;-81
2021/09/15 00:18:03;;;;;;;9.63;8.73;;;;;;;21.05;78.07;100084.06;4995121;28;20934;-81
2021/09/15 00:20:28;;;;;;;10.50;9.43;;;;;;;21.02;78.16;100079.19;4992805;28;20399;-81
2021/09/15 00:22:54;;;;;;;11.60;9.97;;;;;;;21.03;77.99;100083.59;5001163;28;20770;-81
2021/09/15 00:25:19;;;;;;;10.30;9.30;;;;;;;21.05;78.31;100081.31;5006823;28;20753;-81
2021/09/15 00:27:44;;;;;;;10.03;9.23;;;;;;;21.08;78.34;100079.84;4997356;28;20458;-81
2021/09/15 00:30:10;;;;;;;10.80;9.73;;;;;;;21.09;78.34;100074.06;4991696;28;20833;-81
2021/09/15 00:32:35;;;;;;;11.90;9.53;;;;;;;21.08;78.19;100075.16;5000616;28;20401;-81
2021/09/15 00:35:00;;;;;;;10.00;9.10;;;;;;;21.08;78.21;100074.31;5005410;28;20494;-81
2021/09/15 00:37:26;;;;;;;9.00;8.20;;;;;;;21.06;78.44;100069.16;5005874;28;20427;-81
2021/09/15 00:39:51;;;;;;;11.07;8.93;;;;;;;21.02;78.78;100059.91;4998713;28;20467;-81
2021/09/15 00:42:16;;;;;;;9.53;8.70;;;;;;;21.03;79.07;100056.03;4996462;28;20406;-81
2021/09/15 00:44:42;;;;;;;10.20;8.23;;;;;;;21.04;79.03;100057.63;5010868;28;20396;-81
2021/09/15 00:47:07;;;;;;;9.10;8.17;;;;;;;21.05;79.14;100055.69;4998274;28;20410;-82
2021/09/15 00:49:33;;;;;;;10.73;8.53;;;;;;;21.05;79.11;100058.44;5009103;28;20415;-82
2021/09/15 00:51:58;;;;;;;9.73;8.40;;;;;;;21.02;79.19;100057.16;4995418;28;20433;-83
2021/09/15 00:54:23;;;;;;;9.63;8.70;;;;;;;20.99;79.48;100052.28;4995323;28;20402;-81
2021/09/15 00:56:49;;;;;;;9.03;8.20;;;;;;;21.01;79.38;100060.25;5003813;28;20398;-82
2021/09/15 00:59:14;;;;;;;9.00;8.10;;;;;;;21.02;79.29;100048.91;4992047;28;20399;-82
2021/09/15 01:01:39;;;;;;;8.43;7.65;;;;;;;21.01;79.29;100050.03;5008063;28;20987;-82
2021/09/15 01:04:06;;;;;;;13.17;8.50;;;;;;;21.03;79.26;100053.28;4995978;28;20401;-81
2021/09/15 01:06:33;;;;;;;8.82;8.07;;;;;;;21.04;79.39;100052.13;4994971;28;20420;-81
2021/09/15 01:09:00;;;;;;;9.30;7.70;;;;;;;21.03;79.40;100056.03;4991622;28;20818;-81
2021/09/15 01:11:27;;;;;;;9.00;7.97;;;;;;;21.05;79.33;100058.44;5001242;28;20896;-82
2021/09/15 01:13:53;;;;;;;10.00;9.00;;;;;;;21.01;79.55;100074.03;4995628;28;20405;-81
2021/09/15 01:16:19;;;;;;;10.35;9.50;;;;;;;20.95;79.81;100067.03;4993900;28;20414;-82
2021/09/15 01:18:45;;;;;;;10.80;9.53;;;;;;;20.93;79.87;100072.06;4991733;28;20906;-82
2021/09/15 01:21:11;;;;;;;9.48;8.48;;;;;;;20.92;79.26;100073.19;4994726;28;20418;-82
2021/09/15 01:23:36;;;;;;;7.90;7.30;;;;;;;20.92;78.73;100064.91;5002467;28;20447;-82
2021/09/15 01:26:01;;;;;;;7.13;6.57;;;;;;;20.90;78.38;100086.47;5006937;28;20404;-82
2021/09/15 01:28:27;;;;;;;7.80;7.07;;;;;;;20.86;78.04;100083.56;4996073;28;20397;-81
2021/09/15 01:30:52;;;;;;;9.03;7.23;;;;;;;20.85;78.12;100084.69;4998349;28;20412;-81
2021/09/15 01:33:18;;;;;;;7.60;6.80;;;;;;;20.88;77.83;100078.53;4997046;28;20402;-81
2021/09/15 01:35:44;;;;;;;7.22;6.63;;;;;;;20.89;77.78;100068.31;4990753;28;20431;-82
2021/09/15 01:38:09;;;;;;;7.10;6.57;;;;;;;20.90;77.53;100062.50;4993917;28;20463;-81
2021/09/15 01:40:36;;;;;;;7.40;6.22;;;;;;;20.94;76.81;100055.22;5010147;28;20436;-81
2021/09/15 01:43:01;;;;;;;10.73;6.13;;;;;;;20.99;76.56;100045.97;4995780;28;20413;-81
2021/09/15 01:45:27;;;;;;;9.13;6.43;;;;;;;21.01;76.73;100043.72;4995771;28;20410;-81
2021/09/15 01:47:53;;;;;;;7.18;6.50;;;;;;;20.99;76.84;100041.28;5000330;28;20401;-82
2021/09/15 01:50:18;;;;;;;6.50;6.00;;;;;;;20.99;76.88;100040.47;5007391;28;20594;-82
2021/09/15 01:52:44;;;;;;;6.30;5.70;;;;;;;20.98;76.67;100038.84;5003288;28;20405;-81
2021/09/15 01:55:25;;;;;;;6.53;5.93;;;;;;;20.97;76.26;100040.81;4996610;28;20460;-81
2021/09/15 01:57:51;;;;;;;7.65;5.80;;;;;;;20.96;75.78;100036.41;5001941;28;20422;-81
2021/09/15 02:00:17;;;;;;;8.27;6.43;;;;;;;20.96;75.73;100036.41;4997520;28;20468;-80
2021/09/15 02:02:43;;;;;;;6.70;5.82;;;;;;;20.96;75.82;100035.59;4994831;28;20857;-81
2021/09/15 02:05:09;;;;;;;10.07;6.90;;;;;;;20.97;75.87;100034.47;4995523;28;20476;-81
2021/09/15 02:07:34;;;;;;;8.52;6.00;;;;;;;20.95;75.92;100037.53;5000217;28;20822;-81
2021/09/15 02:09:59;;;;;;;7.03;6.13;;;;;;;20.93;75.96;100026.06;4998415;28;20430;-81
2021/09/15 02:12:24;;;;;;;9.60;6.20;;;;;;;20.93;75.90;100028.00;5003136;28;20408;-81
2021/09/15 02:14:50;;;;;;;8.63;6.47;;;;;;;20.90;75.92;100020.38;5001105;28;20413;-81
2021/09/15 02:17:15;;;;;;;7.50;6.25;;;;;;;20.88;76.03;100017.94;4999213;28;20497;-81
2021/09/15 02:19:40;;;;;;;12.97;6.40;;;;;;;20.84;76.10;100011.47;5005436;28;20398;-81
2021/09/15 02:22:06;;;;;;;8.47;6.10;;;;;;;20.82;76.29;100010.16;5005553;28;20419;-81
2021/09/15 02:24:31;;;;;;;7.03;6.43;;;;;;;20.79;76.60;100011.63;4996236;28;20408;-82
2021/09/15 02:26:56;;;;;;;6.78;6.18;;;;;;;20.78;76.52;100010.00;4994954;28;20493;-81
2021/09/15 02:29:22;;;;;;;7.60;6.33;;;;;;;20.75;76.67;100013.38;4994567;28;20881;-80
2021/09/15 02:31:47;;;;;;;7.80;7.00;;;;;;;20.71;76.79;100015.19;4995014;28;20472;-81
2021/09/15 02:34:12;;;;;;;7.13;6.57;;;;;;;20.66;76.84;100013.41;4993950;28;20426;-81
2021/09/15 02:36:38;;;;;;;7.05;6.25;;;;;;;20.64;76.99;100014.84;4997356;28;20412;-80
2021/09/15 02:39:03;;;;;;;9.17;6.57;;;;;;;20.60;77.08;100011.94;4998646;28;20460;-81
2021/09/15 02:41:29;;;;;;;8.03;7.03;;;;;;;20.59;77.16;100018.56;5004977;28;20411;-81
2021/09/15 02:43:54;;;;;;;7.30;6.47;;;;;;;20.58;77.39;100007.88;4997662;28;20443;-81
2021/09/15 02:46:19;;;;;;;11.03;6.50;;;;;;;20.55;77.65;100008.50;4997562;28;20811;-81
2021/09/15 02:48:44;;;;;;;7.20;6.50;;;;;;;20.53;77.71;100010.78;4993167;28;20846;-81
2021/09/15 02:51:10;;;;;;;7.57;6.83;;;;;;;20.56;77.69;100010.13;5007483;28;20410;-81
2021/09/15 02:53:35;;;;;;;7.73;6.60;;;;;;;20.53;77.68;99995.06;5002070;28;20411;-80
2021/09/15 02:56:01;;;;;;;9.53;6.40;;;;;;;20.55;77.63;100006.56;5009886;28;20986;-81
2021/09/15 02:58:26;;;;;;;23.27;12.83;;;;;;;20.54;77.55;100012.41;4995973;28;20770;-82
2021/09/15 03:00:51;;;;;;;11.73;9.23;;;;;;;20.51;77.67;100004.78;4997810;28;20472;-81
2021/09/15 03:03:16;;;;;;;12.50;7.90;;;;;;;20.53;77.87;100019.84;5002347;28;20402;-81
2021/09/15 03:05:42;;;;;;;7.87;7.10;;;;;;;20.51;77.82;100008.38;4993554;28;20414;-81
2021/09/15 03:08:07;;;;;;;15.17;11.43;;;;;;;20.52;77.89;100017.41;4994447;28;20421;-82
2021/09/15 03:10:32;;;;;;;9.17;7.77;;;;;;;20.45;78.07;100017.09;4993790;28;20600;-81
2021/09/15 03:12:59;;;;;;;6.93;6.30;;;;;;;20.42;78.19;100026.78;5001536;28;20435;-82
2021/09/15 03:15:25;;;;;;;7.05;6.38;;;;;;;20.39;78.21;100018.34;5005216;28;20416;-81
2021/09/15 03:17:50;;;;;;;9.00;6.85;;;;;;;20.40;78.36;100017.22;5004941;28;20504;-82
2021/09/15 03:20:15;;;;;;;11.90;10.80;;;;;;;20.40;78.15;100014.47;4993654;28;20907;-81
2021/09/15 03:22:41;;;;;;;12.97;8.40;;;;;;;20.42;78.16;100015.78;5004774;28;20399;-81
2021/09/15 03:25:08;;;;;;;8.85;7.95;;;;;;;20.45;78.10;100012.38;5001294;28;20431;-81
2021/09/15 03:27:33;;;;;;;8.73;7.80;;;;;;;20.46;78.12;100018.69;4996416;28;20416;-81
2021/09/15 03:29:59;;;;;;;11.27;7.47;;;;;;;20.46;78.04;100015.94;5003280;28;20467;-82
2021/09/15 03:32:24;;;;;;;8.23;7.30;;;;;;;20.48;78.02;100024.72;4991501;28;20835;-81
2021/09/15 03:34:49;;;;;;;8.17;6.90;;;;;;;20.46;78.04;100022.25;4999337;28;20503;-81
2021/09/15 03:37:14;;;;;;;10.10;6.90;;;;;;;20.45;78.14;100028.09;4998099;28;20437;-81
2021/09/15 03:39:40;;;;;;;9.40;7.30;;;;;;;20.47;78.16;100025.84;5010863;28;20529;-81
2021/09/15 03:42:05;;;;;;;8.70;6.97;;;;;;;20.38;78.56;100028.56;5006397;28;20488;-81
2021/09/15 03:44:32;;;;;;;9.97;7.53;;;;;;;20.40;79.08;100028.25;5002963;28;20414;-81
2021/09/15 03:46:57;;;;;;;10.35;7.53;;;;;;;20.40;79.42;100033.75;5002245;28;20432;-82
2021/09/15 03:49:23;;;;;;;10.73;7.70;;;;;;;20.42;80.13;100028.72;5008911;28;20874;-83
2021/09/15 03:51:49;;;;;;;15.23;12.30;;;;;;;20.39;80.53;100024.66;4993250;28;20408;-83
2021/09/15 03:54:15;;;;;;;16.98;11.65;;;;;;;20.38;81.28;100016.75;4997648;28;20499;-82
2021/09/15 03:56:40;;;;;;;17.50;10.93;;;;;;;20.38;81.63;100020.31;4999413;28;20395;-83
2021/09/15 03:59:05;;;;;;;14.38;11.15;;;;;;;20.38;82.00;100014.00;5007951;28;20903;-83
2021/09/15 04:01:30;;;;;;;11.67;8.43;;;;;;;20.38;81.32;100025.00;5002669;28;20963;-83
2021/09/15 04:03:56;;;;;;;11.13;8.73;;;;;;;20.34;81.05;100030.34;5002625;28;20497;-84
2021/09/15 04:06:21;;;;;;;11.87;9.93;;;;;;;20.30;81.68;100017.53;4995315;28;20402;-85
2021/09/15 04:08:46;;;;;;;15.77;9.00;;;;;;;20.31;82.19;99997.97;4993570;28;20441;-85
2021/09/15 04:11:11;;;;;;;11.70;8.60;;;;;;;20.31;82.15;100008.97;5004747;28;20442;-87
2021/09/15 04:13:37;;;;;;;12.50;8.97;;;;;;;20.33;81.85;100023.22;4997004;28;20420;-86
2021/09/15 04:16:02;;;;;;;12.70;9.70;;;;;;;20.33;82.48;100030.66;5010771;28;20401;-86
2021/09/15 04:18:27;;;;;;;13.43;9.83;;;;;;;20.32;82.72;100032.59;5006476;28;20424;-88
2021/09/15 04:20:53;;;;;;;16.37;11.30;;;;;;;20.31;83.17;100030.97;5001849;28;20402;-87
2021/09/15 04:23:32;;;;;;;10.50;9.50;;;;;;;20.31;83.21;100030.16;4999096;28;20447;-88
2021/09/15 04:31:26;;;;;;;9.98;8.70;;;;;;;20.29;82.96;100027.72;4998093;28;20779;-86
2021/09/15 04:33:53;;;;;;;23.08;9.15;;;;;;;20.28;82.85;100028.06;4999912;28;20417;-87
2021/09/15 04:36:18;;;;;;;14.18;10.25;;;;;;;20.28;83.40;100030.81;4995287;28;20755;-87
2021/09/15 04:38:43;;;;;;;16.30;11.07;;;;;;;20.26;83.69;100041.28;4997788;28;20424;-87
2021/09/15 04:41:09;;;;;;;17.10;11.50;;;;;;;20.27;83.50;100040.19;4991192;28;20418;-86
2021/09/15 04:43:34;;;;;;;20.10;12.10;;;;;;;20.28;83.88;100039.88;4993805;28;20410;-87
2021/09/15 04:46:00;;;;;;;17.00;10.77;;;;;;;20.26;83.89;100033.84;4999821;28;20425;-87
2021/09/15 04:48:25;;;;;;;21.13;11.73;;;;;;;20.26;83.86;100042.09;5022147;28;20440;-87
2021/09/15 04:50:50;;;;;;;18.43;12.07;;;;;;;20.26;83.79;100049.53;5003451;28;20425;-86
2021/09/15 04:53:16;;;;;;;13.45;10.65;;;;;;;20.27;83.68;100049.25;4991055;28;20489;-87
2021/09/15 04:55:42;;;;;;;12.63;10.30;;;;;;;20.30;83.40;100039.53;4997661;28;20882;-86
2021/09/15 04:58:07;;;;;;;13.85;10.82;;;;;;;20.31;83.62;100032.91;4990582;28;20928;-86
2021/09/15 05:00:32;;;;;;;14.40;11.47;;;;;;;20.30;83.71;100029.34;5005009;28;20414;-87
2021/09/15 05:02:58;;;;;;;13.47;10.80;;;;;;;20.30;83.78;100025.78;4999045;28;20393;-87
2021/09/15 05:05:24;;;;;;;12.17;8.77;;;;;;;20.28;83.20;100028.06;5004207;28;20476;-89
2021/09/15 05:07:49;;;;;;;10.45;9.35;;;;;;;20.28;82.97;100025.31;5008790;28;20487;-89
2021/09/15 05:10:15;;;;;;;12.40;9.07;;;;;;;20.28;83.05;100025.31;5005788;28;20405;-87
2021/09/15 05:12:40;;;;;;;10.83;9.67;;;;;;;20.28;83.18;100028.88;5000707;28;20430;-89
2021/09/15 05:15:06;;;;;;;11.23;9.10;;;;;;;20.27;83.56;100038.25;4992580;28;20854;-85
2021/09/15 05:17:34;;;;;;;13.32;9.95;;;;;;;20.25;83.54;100039.66;4993373;28;20420;-86
2021/09/15 05:19:59;;;;;;;13.53;9.80;;;;;;;20.25;83.74;100036.91;4999148;28;20425;-85
2021/09/15 05:22:25;;;;;;;10.80;9.70;;;;;;;20.26;83.69;100039.34;4998212;28;20416;-86
2021/09/15 05:24:50;;;;;;;11.97;9.77;;;;;;;20.27;83.82;100041.00;5000335;28;20424;-83
2021/09/15 05:27:15;;;;;;;12.30;9.33;;;;;;;20.26;83.58;100053.09;4998819;28;20451;-81
2021/09/15 05:29:41;;;;;;;10.27;9.23;;;;;;;20.25;83.32;100037.72;4994514;28;20431;-82
2021/09/15 05:32:07;;;;;;;11.70;10.03;;;;;;;20.22;83.42;100043.84;5001587;28;20420;-83
2021/09/15 05:34:33;;;;;;;12.48;9.68;;;;;;;20.20;83.47;100048.88;4995627;28;20437;-85
2021/09/15 05:36:58;;;;;;;11.52;9.95;;;;;;;20.18;83.85;100051.97;4999818;28;20478;-86
2021/09/15 05:39:23;;;;;;;12.83;10.47;;;;;;;20.20;83.99;100051.63;4994952;28;20437;-86
2021/09/15 05:41:48;;;;;;;10.97;9.80;;;;;;;20.21;83.99;100047.75;5002372;28;20475;-86
2021/09/15 05:44:14;;;;;;;12.33;10.50;;;;;;;20.25;84.26;100053.44;5000139;28;20868;-87
2021/09/15 05:46:39;;;;;;;11.98;10.40;;;;;;;20.26;84.00;100050.34;5001580;28;20412;-86
2021/09/15 05:49:05;;;;;;;14.53;10.30;;;;;;;20.28;83.71;100059.13;4995144;28;20819;-83
2021/09/15 05:51:30;;;;;;;11.03;10.03;;;;;;;20.26;83.67;100060.53;4994654;28;20468;-89
2021/09/15 05:53:56;;;;;;;12.35;11.10;;;;;;;20.24;83.88;100063.63;5002359;28;20465;-86
2021/09/15 05:56:22;;;;;;;13.10;10.43;;;;;;;20.25;83.58;100059.75;4993942;28;20758;-85
2021/09/15 05:58:50;;;;;;;14.10;10.70;;;;;;;20.27;83.84;100064.94;4994639;28;20424;-86
2021/09/15 06:01:15;;;;;;;14.98;11.98;;;;;;;20.30;83.85;100067.06;5008709;28;20919;-82
2021/09/15 06:03:40;;;;;;;13.27;10.60;;;;;;;20.33;83.66;100066.41;5003573;28;20445;-85
2021/09/15 06:06:06;;;;;;;12.03;10.80;;;;;;;20.34;83.74;100065.31;4999726;28;20444;-85
2021/09/15 06:08:31;;;;;;;13.33;12.03;;;;;;;20.34;83.79;100063.38;4998272;28;20426;-88
2021/09/15 06:10:56;;;;;;;19.23;12.67;;;;;;;20.37;83.77;100064.66;4997256;28;20424;-84
2021/09/15 06:13:22;;;;;;;17.00;12.87;;;;;;;20.39;84.06;100065.13;5007289;28;20405;-85
2021/09/15 06:15:48;;;;;;;18.02;11.70;;;;;;;20.40;83.78;100055.75;5001780;28;20407;-86
2021/09/15 06:18:13;;;;;;;13.90;11.60;;;;;;;20.40;83.73;100062.09;5003129;28;20418;-85
2021/09/15 06:20:39;;;;;;;12.87;11.47;;;;;;;20.39;83.77;100054.13;4998876;28;20493;-85
2021/09/15 06:23:05;;;;;;;14.10;12.60;;;;;;;20.41;83.96;100055.47;5009190;28;20754;-85
2021/09/15 06:25:31;;;;;;;12.35;10.85;;;;;;;20.44;83.68;100052.06;4999467;28;20559;-85
2021/09/15 06:27:56;;;;;;;11.18;10.07;;;;;;;20.46;83.30;100055.28;5002057;28;20403;-85
2021/09/15 06:30:21;;;;;;;12.80;9.90;;;;;;;20.50;82.90;100060.97;5008383;28;20784;-85
2021/09/15 06:32:47;;;;;;;11.77;9.20;;;;;;;20.52;82.51;100058.69;4997510;28;20913;-85
2021/09/15 06:35:13;;;;;;;13.67;9.50;;;;;;;20.55;82.56;100061.63;4992128;28;20505;-86
2021/09/15 06:37:39;;;;;;;12.25;9.60;;;;;;;20.61;82.30;100062.31;5003691;28;20456;-85
2021/09/15 06:40:06;;;;;;;12.13;10.00;;;;;;;20.64;82.25;100061.66;4998162;28;20402;-86
2021/09/15 06:42:33;;;;;;;11.75;10.55;;;;;;;20.65;82.37;100053.06;4991995;28;21176;-85
2021/09/15 06:44:58;;;;;;;13.60;10.75;;;;;;;20.70;82.96;100049.34;4999508;28;20405;-86
2021/09/15 06:47:23;;;;;;;12.53;11.33;;;;;;;20.75;82.89;100051.16;5003073;28;20407;-85
2021/09/15 06:49:49;;;;;;;13.17;10.30;;;;;;;20.82;82.73;100059.72;5001983;28;20773;-86
2021/09/15 06:52:14;;;;;;;11.63;10.37;;;;;;;20.89;82.62;100060.88;4994465;28;20418;-85
2021/09/15 06:54:39;;;;;;;11.57;10.35;;;;;;;20.94;82.26;100063.50;5007847;28;20398;-85
2021/09/15 06:57:05;;;;;;;11.90;10.50;;;;;;;20.98;82.41;100063.63;5001604;28;20752;-85
2021/09/15 06:59:30;;;;;;;11.33;10.20;;;;;;;20.97;81.98;100060.09;5000018;28;20402;-85
2021/09/15 07:01:56;;;;;;;12.55;11.30;;;;;;;20.96;82.34;100054.88;5007044;28;20400;-85
2021/09/15 07:04:21;;;;;;;11.90;10.70;;;;;;;20.92;82.53;100060.22;4996386;28;20404;-85
2021/09/15 07:06:46;;;;;;;13.60;11.20;;;;;;;20.91;82.33;100058.59;5004379;28;21076;-85
2021/09/15 07:09:12;;;;;;;11.03;9.77;;;;;;;20.90;82.25;100061.69;4995584;28;20414;-86
2021/09/15 07:11:37;;;;;;;11.32;10.20;;;;;;;20.91;82.11;100066.06;5007494;28;20932;-85
2021/09/15 07:14:05;;;;;;;11.93;10.73;;;;;;;20.91;82.41;100066.06;4996938;28;20417;-86
2021/09/15 07:16:32;;;;;;;11.15;9.93;;;;;;;20.89;82.54;100066.38;4995394;28;20411;-85
2021/09/15 07:18:58;;;;;;;11.93;10.60;;;;;;;20.88;82.87;100070.25;5004728;28;20425;-85
2021/09/15 07:21:23;;;;;;;12.65;9.80;;;;;;;20.88;82.77;100063.97;5016734;28;20403;-85
2021/09/15 07:23:49;;;;;;;12.73;9.80;;;;;;;20.88;82.76;100075.78;5010398;28;20397;-85
2021/09/15 07:26:14;;;;;;;11.93;10.33;;;;;;;20.89;83.01;100068.31;4999593;28;20491;-85
2021/09/15 07:28:39;;;;;;;12.87;10.53;;;;;;;20.88;83.39;100072.22;5017169;28;20776;-85
2021/09/15 07:31:05;;;;;;;11.00;9.90;;;;;;;20.84;83.21;100098.78;5000118;28;20445;-84
2021/09/15 07:33:32;;;;;;;12.33;11.03;;;;;;;20.81;83.53;100093.94;4998316;28;20417;-86
2021/09/15 07:36:00;;;;;;;15.70;11.80;;;;;;;20.77;83.86;100096.50;4995947;28;20422;-84
2021/09/15 07:38:25;;;;;;;19.10;12.20;;;;;;;20.74;83.95;100099.91;5002679;28;20436;-83
2021/09/15 07:40:50;;;;;;;22.37;13.97;;;;;;;20.72;84.66;100102.16;4999828;28;20399;-88
2021/09/15 07:43:16;;;;;;;17.77;12.67;;;;;;;20.73;84.77;100098.28;4994166;28;20401;-85
2021/09/15 07:45:41;;;;;;;19.80;14.47;;;;;;;20.76;84.96;100091.31;4996135;28;20408;-85
2021/09/15 07:48:06;;;;;;;18.07;14.37;;;;;;;20.78;84.76;100094.56;5004138;28;20417;-85
2021/09/15 07:50:31;;;;;;;17.80;13.47;;;;;;;20.78;84.84;100087.09;4995177;28;20489;-85
2021/09/15 07:52:57;;;;;;;18.30;14.10;;;;;;;20.81;85.03;100092.00;4995191;28;20414;-85
2021/09/15 07:55:22;;;;;;;17.97;12.70;;;;;;;20.82;84.93;100082.56;4995906;28;20777;-84
2021/09/15 07:57:52;;;;;;;17.30;13.70;;;;;;;20.86;85.27;100089.06;5004453;28;20429;-84
2021/09/15 08:00:18;;;;;;;12.43;11.23;;;;;;;20.91;85.11;100094.41;4994871;28;20553;-85
2021/09/15 08:02:43;;;;;;;17.88;12.63;;;;;;;20.96;84.81;100093.44;5004625;28;20499;-85
2021/09/15 08:05:08;;;;;;;15.23;12.07;;;;;;;21.01;84.92;100096.06;4993648;28;20402;-85
2021/09/15 08:07:34;;;;;;;12.60;10.87;;;;;;;21.04;84.87;100106.44;5009892;28;20884;-85
2021/09/15 08:09:59;;;;;;;14.77;10.82;;;;;;;21.03;84.61;100100.13;4998030;28;21080;-84
2021/09/15 08:12:24;;;;;;;13.20;11.33;;;;;;;21.02;84.61;100101.25;4993941;28;20497;-85
2021/09/15 08:14:49;;;;;;;13.03;11.00;;;;;;;21.05;84.50;100106.09;4996422;28;20429;-85
2021/09/15 08:17:15;;;;;;;12.83;10.17;;;;;;;21.00;84.21;100103.53;5001422;28;20401;-85
2021/09/15 08:19:40;;;;;;;15.80;11.13;;;;;;;20.98;84.28;100121.47;4993082;28;20418;-83
2021/09/15 08:22:05;;;;;;;14.33;11.30;;;;;;;20.91;84.87;100107.41;4995968;28;20508;-84
2021/09/15 08:24:31;;;;;;;13.90;10.93;;;;;;;20.86;85.17;100110.28;5005771;28;20411;-85
2021/09/15 08:26:56;;;;;;;12.80;11.33;;;;;;;20.85;85.13;100109.47;4991640;28;20902;-84
2021/09/15 08:29:22;;;;;;;15.87;11.50;;;;;;;20.83;85.07;100117.25;4996017;28;20451;-85
2021/09/15 08:31:47;;;;;;;11.25;10.15;;;;;;;20.75;85.13;100120.78;4992453;28;20898;-85
2021/09/15 08:34:12;;;;;;;11.67;10.00;;;;;;;20.72;85.40;100124.19;5004873;28;20393;-88
2021/09/15 08:36:38;;;;;;;12.07;8.40;;;;;;;20.77;84.79;100126.00;5008311;28;20408;-85
2021/09/15 08:39:03;;;;;;;12.48;7.10;;;;;;;20.74;84.46;100127.44;4991884;28;20477;-86
2021/09/15 08:41:29;;;;;;;7.60;6.70;;;;;;;20.74;84.39;100132.13;4995886;28;20398;-86
2021/09/15 08:43:55;;;;;;;7.50;6.25;;;;;;;20.69;84.78;100122.06;4997522;28;20409;-84
2021/09/15 08:46:23;;;;;;;9.87;6.53;;;;;;;20.75;84.69;100123.53;4994157;28;20457;-85
2021/09/15 08:48:49;;;;;;;9.60;5.95;;;;;;;20.74;84.45;100127.44;5003513;28;20394;-85
2021/09/15 08:51:16;;;;;;;7.63;5.40;;;;;;;20.78;84.58;100124.88;5001613;28;20424;-85
2021/09/15 08:53:45;;;;;;;7.15;5.60;;;;;;;20.90;84.33;100122.28;5010857;28;20396;-85
2021/09/15 08:56:12;;;;;;;5.65;4.60;;;;;;;20.96;83.22;100121.00;4995756;28;20393;-85
2021/09/15 08:58:38;;;;;;;7.72;4.65;;;;;;;21.10;83.70;100127.22;5004299;28;20422;-83
2021/09/15 09:01:08;;;;;;;7.65;5.10;;;;;;;21.11;83.62;100118.63;4992735;28;20925;-85
2021/09/15 09:03:35;;;;;;;6.18;4.30;;;;;;;21.19;82.86;100128.03;4994749;28;20975;-85
2021/09/15 09:06:10;;;;;;;7.32;5.03;;;;;;;21.19;82.93;100128.84;4999836;28;20567;-83
2021/09/15 09:08:44;;;;;;;4.43;3.60;;;;;;;21.05;83.16;100130.09;4991923;28;20785;-83
2021/09/15 09:11:11;;;;;;;5.18;4.20;;;;;;;21.05;83.16;100127.31;5000522;28;20402;-83
2021/09/15 09:13:51;;;;;;;6.03;4.05;;;;;;;21.17;82.63;100124.81;5017166;28;20427;-82
2021/09/15 09:16:19;;;;;;;4.72;4.35;;;;;;;21.27;82.54;100127.25;4996509;28;20410;-82
2021/09/15 09:19:05;;;;;;;5.78;4.18;;;;;;;21.30;82.36;100131.28;5010110;28;20413;-83
2021/09/15 09:21:32;;;;;;;4.60;3.40;;;;;;;21.40;81.96;100130.97;5011541;28;20523;-83
2021/09/15 09:24:00;;;;;;;3.78;3.45;;;;;;;21.44;81.69;100135.47;4991239;28;20386;-83
2021/09/15 09:26:52;;;;;;;4.60;3.85;;;;;;;21.52;81.66;100128.34;4993465;28;20398;-83
2021/09/15 09:29:21;;;;;;;4.28;3.50;;;;;;;21.53;81.55;100135.50;4991669;28;20411;-82
2021/09/15 09:32:05;;;;;;;4.95;3.22;;;;;;;21.55;81.10;100124.94;4991730;28;20390;-82
2021/09/15 09:34:51;;;;;;;4.15;3.85;;;;;;;21.62;80.75;100130.78;5005876;28;20447;-82
2021/09/15 09:37:21;;;;;;;5.15;4.63;;;;;;;21.70;81.17;100116.97;5011436;28;20409;-81
2021/09/15 09:39:51;;;;;;;6.22;4.32;;;;;;;21.90;80.84;100111.97;5004610;28;20407;-82
2021/09/15 09:42:22;;;;;;;6.88;5.05;;;;;;;22.01;80.16;100119.53;5008927;28;20417;-82
2021/09/15 09:44:48;;;;;;;7.00;4.37;;;;;;;22.15;79.13;100122.09;4999522;28;20453;-81
2021/09/15 09:47:19;;;;;;;6.53;4.40;;;;;;;22.24;79.10;100118.16;4991324;28;20406;-81
2021/09/15 09:50:02;;;;;;;5.82;4.25;;;;;;;22.19;79.07;100112.84;4991479;28;20413;-81
2021/09/15 09:52:28;;;;;;;4.68;4.25;;;;;;;22.18;79.10;100119.50;5002729;28;20405;-80
2021/09/15 09:55:04;;;;;;;5.22;4.20;;;;;;;22.32;78.25;100122.03;4996161;28;20761;-80
2021/09/15 09:57:30;;;;;;;4.27;3.87;;;;;;;22.48;77.87;100120.34;5002366;28;20418;-80
2021/09/15 09:59:56;;;;;;;4.13;3.72;;;;;;;22.75;77.06;100116.34;4993065;28;20425;-81
2021/09/15 10:02:22;;;;;;;4.50;3.95;;;;;;;23.14;75.41;100113.16;4999190;28;20397;-81
2021/09/15 10:04:47;;;;;;;4.20;3.70;;;;;;;23.15;74.48;100111.19;4993941;28;20403;-83
2021/09/15 10:07:14;;;;;;;4.97;3.67;;;;;;;23.08;74.75;100106.22;4997656;28;20482;-78
2021/09/15 10:09:39;;;;;;;9.10;4.25;;;;;;;23.02;74.26;100123.31;4996283;28;20478;-80
2021/09/15 10:12:06;;;;;;;4.43;3.47;;;;;;;23.14;74.73;100120.63;4998268;28;20418;-80
2021/09/15 10:14:32;;;;;;;5.22;3.92;;;;;;;23.36;74.76;100120.28;5005959;28;20467;-80
2021/09/15 10:17:10;;;;;;;4.47;3.77;;;;;;;23.65;73.08;100116.63;4998585;28;20424;-79
2021/09/15 10:19:43;;;;;;;4.27;3.30;;;;;;;23.71;71.13;100112.53;4996110;28;20414;-80
2021/09/15 10:22:09;;;;;;;5.53;3.47;;;;;;;23.79;71.42;100114.38;4994718;28;20403;-80
2021/09/15 10:24:54;;;;;;;7.13;3.47;;;;;;;23.94;71.30;100110.19;5010579;28;20887;-81
2021/09/15 10:27:23;;;;;;;6.78;3.30;;;;;;;23.80;70.93;100109.66;5000851;28;20919;-79
2021/09/15 10:30:07;;;;;;;3.28;3.03;;;;;;;23.75;71.02;100105.97;4999364;28;20414;-80
2021/09/15 10:32:34;;;;;;;3.67;2.92;;;;;;;23.64;70.40;100115.84;5004605;28;20498;-80
2021/09/15 10:38:53;;;;;;;4.03;3.10;;;;;;;23.40;70.18;100118.50;5001155;28;20466;-79
2021/09/15 10:41:31;;;;;;;5.63;3.20;;;;;;;23.24;70.88;100110.00;4997421;28;20450;-79
2021/09/15 10:44:13;;;;;;;3.35;3.10;;;;;;;23.19;71.59;100110.16;5002477;28;20421;-80
2021/09/15 10:46:40;;;;;;;3.85;3.25;;;;;;;23.13;71.97;100107.94;5010913;28;20400;-80
2021/09/15 10:49:21;;;;;;;4.80;3.42;;;;;;;23.02;72.84;100107.53;5003944;28;20399;-80
2021/09/15 10:52:07;;;;;;;3.33;2.95;;;;;;;23.06;71.89;100105.72;4993923;28;20410;-80
2021/09/15 10:54:55;;;;;;;5.20;3.30;;;;;;;23.08;72.41;100091.56;4998081;28;20395;-80
2021/09/15 10:57:29;;;;;;;5.23;3.30;;;;;;;23.15;72.96;100092.63;5004381;28;20880;-80
2021/09/15 11:00:25;;;;;;;5.45;2.90;;;;;;;22.94;71.48;100093.78;5003930;28;20409;-79
2021/09/15 11:02:50;;;;;;;4.40;3.00;;;;;;;22.71;72.61;100090.53;4998681;28;20465;-80
2021/09/15 11:05:25;;;;;;;3.73;3.00;;;;;;;22.81;72.64;100092.91;4995325;28;20822;-79
2021/09/15 11:07:50;;;;;;;3.38;2.85;;;;;;;22.90;71.23;100096.41;5003215;28;20430;-79
2021/09/15 11:10:33;;;;;;;3.93;3.40;;;;;;;22.89;70.93;100088.44;5000501;28;20412;-79
2021/09/15 11:13:00;;;;;;;3.85;2.95;;;;;;;;;;4997152;28;20408;-80
2021/09/15 11:15:31;;;;;;;2.72;2.53;;;;;;;22.89;69.72;100083.72;5006211;28;20389;-79
2021/09/15 11:17:57;;;;;;;3.20;2.92;;;;;;;22.92;70.48;100085.81;4997976;28;20430;-79
2021/09/15 11:20:24;;;;;;;5.78;3.15;;;;;;;22.93;69.98;100087.44;5001092;28;20417;-79
2021/09/15 11:22:54;;;;;;;4.88;2.67;;;;;;;22.97;70.32;100088.41;5007853;28;20413;-79
2021/09/15 11:25:21;;;;;;;5.20;2.97;;;;;;;22.93;70.81;100079.16;5007616;28;20811;-80
2021/09/15 11:28:07;;;;;;;3.93;2.97;;;;;;;22.90;71.11;100077.06;4999513;28;20505;-79